Airfield :
LOGIN :

Register | Disclaimer

   EN    FR    IT 

 










Legend :    VFR   Marginal VFR   IFR   Intensive IFR   Very Intensive IFR
Visi :
Ceiling :
>= 8 km
>= 3000ft
5 to 8 km
1000 to 3000 ft
1500m to 5 km
500 to 1000 ft
800 to 1500m
200 to 500 ft
< 800m
< 200 ft
Symbols :   Thunderstorms  Fog  Heavy snow  Heavy precipitations  Wind > 20 kt
SIGMETs :     Misc.  Thunderstorms  Icing  Turbulence  Mountain Waves  Volcanic Ashes






- Airport Elevation : 0 ft


ETEB - Ansbach Army Heliport

CURRENT METAR :
  • 020255Z AUTO 05008KT 8000 -DZ BR OVC005 02/01 A3009 RMK AO2 DZB46 SLP223 P0000 60000 T00180011 57010 $

EXPIRED METARs :
  • 020155Z AUTO 03005KT 9999 OVC006 02/01 A3010 RMK AO2 SLP226 T00200013 $
  • 020055Z AUTO 05004KT 9000 BR OVC006 02/02 A3011 RMK AO2 SLP230 T00220015 $
  • 020040Z AUTO 05006KT 8000 BR OVC006 02/02 A3011 RMK AO2 SLP230 $

TAF AMD TAF ETEB
Valid from the 01 at 19:00 until the 02 at 21:00 UTC


011940Z 0119/0221 04006KT 9999 BKN015 OVC025 QNH3013INS
BECMG 0205/0206 07009KT 5000 -RASN BKN005 OVC030 650403 QNH3006INS
BECMG 0210/0211 08006KT 9999 NSW SCT010 OVC020 650404 QNH3003INS
BECMG 0215/0216 07006KT 4000 -SN OVC005 650055 QNH3002INS TX03/0119Z TN00/0206Z LAST NO AMDS AFT 0122 NEXT 0207



MET'MAP, your aeronautical weather chart ! - Copyright ORBIFLY December 2007 - Disclaimer

ORBIFLY MET'MAP TEAM :

Programming & Development : Alexandra Zaïnal
Original concept : Baudouin d'Aumeries
Technical & hardware support : Manuel Goepfert
Assistance : Marc-Olivier Méhu




SOURCES & CREDITS :

   NOAA